sensor_id;sensor_type;location;lat;lon;timestamp;P1;P2;P0
63305;PMS5003;50735;52.060;1.248;2023-04-24T00:00:04;19;19;
63305;PMS5003;50735;52.060;1.248;2023-04-24T00:02:37;18;15;
63305;PMS5003;50735;52.060;1.248;2023-04-24T00:05:08;22;19;
63305;PMS5003;50735;52.060;1.248;2023-04-24T00:07:40;21;18;
63305;PMS5003;50735;52.060;1.248;2023-04-24T00:10:12;21;16;
63305;PMS5003;50735;52.060;1.248;2023-04-24T00:12:43;19;18;
63305;PMS5003;50735;52.060;1.248;2023-04-24T00:15:16;26;23;
63305;PMS5003;50735;52.060;1.248;2023-04-24T00:17:47;18;15;
63305;PMS5003;50735;52.060;1.248;2023-04-24T00:20:19;23;18;
63305;PMS5003;50735;52.060;1.248;2023-04-24T00:22:51;23;19;
63305;PMS5003;50735;52.060;1.248;2023-04-24T00:25:23;20;18;
63305;PMS5003;50735;52.060;1.248;2023-04-24T00:27:54;18;18;
63305;PMS5003;50735;52.060;1.248;2023-04-24T00:30:26;20;18;
63305;PMS5003;50735;52.060;1.248;2023-04-24T00:32:59;19;18;
63305;PMS5003;50735;52.060;1.248;2023-04-24T00:35:30;21;17;
63305;PMS5003;50735;52.060;1.248;2023-04-24T00:38:03;22;22;
63305;PMS5003;50735;52.060;1.248;2023-04-24T00:40:35;21;19;
63305;PMS5003;50735;52.060;1.248;2023-04-24T00:43:07;17;17;
63305;PMS5003;50735;52.060;1.248;2023-04-24T00:45:39;18;18;
63305;PMS5003;50735;52.060;1.248;2023-04-24T00:48:11;30;27;
63305;PMS5003;50735;52.060;1.248;2023-04-24T00:50:43;23;19;
63305;PMS5003;50735;52.060;1.248;2023-04-24T00:53:15;22;18;
63305;PMS5003;50735;52.060;1.248;2023-04-24T00:55:46;20;18;
63305;PMS5003;50735;52.060;1.248;2023-04-24T00:58:19;28;23;
63305;PMS5003;50735;52.060;1.248;2023-04-24T01:00:51;25;21;
63305;PMS5003;50735;52.060;1.248;2023-04-24T01:03:25;22;21;
63305;PMS5003;50735;52.060;1.248;2023-04-24T01:06:00;25;22;
63305;PMS5003;50735;52.060;1.248;2023-04-24T01:08:32;31;28;
63305;PMS5003;50735;52.060;1.248;2023-04-24T01:11:05;36;28;
63305;PMS5003;50735;52.060;1.248;2023-04-24T01:13:37;24;24;
63305;PMS5003;50735;52.060;1.248;2023-04-24T01:16:09;20;18;
63305;PMS5003;50735;52.060;1.248;2023-04-24T01:18:41;32;26;
63305;PMS5003;50735;52.060;1.248;2023-04-24T01:21:14;31;26;
63305;PMS5003;50735;52.060;1.248;2023-04-24T01:23:47;22;20;
63305;PMS5003;50735;52.060;1.248;2023-04-24T01:26:19;23;23;
63305;PMS5003;50735;52.060;1.248;2023-04-24T01:28:51;32;31;
63305;PMS5003;50735;52.060;1.248;2023-04-24T01:31:23;20;20;
63305;PMS5003;50735;52.060;1.248;2023-04-24T01:33:54;22;22;
63305;PMS5003;50735;52.060;1.248;2023-04-24T01:36:28;27;26;
63305;PMS5003;50735;52.060;1.248;2023-04-24T01:39:01;24;23;
63305;PMS5003;50735;52.060;1.248;2023-04-24T01:41:33;28;24;
63305;PMS5003;50735;52.060;1.248;2023-04-24T01:44:05;33;27;
63305;PMS5003;50735;52.060;1.248;2023-04-24T01:46:37;22;19;
63305;PMS5003;50735;52.060;1.248;2023-04-24T01:49:09;27;21;
63305;PMS5003;50735;52.060;1.248;2023-04-24T01:51:42;25;23;
63305;PMS5003;50735;52.060;1.248;2023-04-24T01:54:14;24;23;
63305;PMS5003;50735;52.060;1.248;2023-04-24T01:56:45;30;22;
63305;PMS5003;50735;52.060;1.248;2023-04-24T01:59:18;31;29;
63305;PMS5003;50735;52.060;1.248;2023-04-24T02:01:52;28;24;
63305;PMS5003;50735;52.060;1.248;2023-04-24T02:04:24;27;22;
63305;PMS5003;50735;52.060;1.248;2023-04-24T02:06:56;24;21;
63305;PMS5003;50735;52.060;1.248;2023-04-24T02:09:28;26;23;
63305;PMS5003;50735;52.060;1.248;2023-04-24T02:12:00;31;28;
63305;PMS5003;50735;52.060;1.248;2023-04-24T02:14:32;28;20;
63305;PMS5003;50735;52.060;1.248;2023-04-24T02:17:04;25;22;
63305;PMS5003;50735;52.060;1.248;2023-04-24T02:19:36;20;20;
63305;PMS5003;50735;52.060;1.248;2023-04-24T02:22:08;25;23;
63305;PMS5003;50735;52.060;1.248;2023-04-24T02:24:40;24;21;
63305;PMS5003;50735;52.060;1.248;2023-04-24T02:27:12;26;21;
63305;PMS5003;50735;52.060;1.248;2023-04-24T02:29:44;28;23;
63305;PMS5003;50735;52.060;1.248;2023-04-24T02:32:16;30;23;
63305;PMS5003;50735;52.060;1.248;2023-04-24T02:34:48;26;24;
63305;PMS5003;50735;52.060;1.248;2023-04-24T02:37:20;23;22;
63305;PMS5003;50735;52.060;1.248;2023-04-24T02:39:52;22;20;
63305;PMS5003;50735;52.060;1.248;2023-04-24T02:42:24;23;19;
63305;PMS5003;50735;52.060;1.248;2023-04-24T02:44:56;24;19;
63305;PMS5003;50735;52.060;1.248;2023-04-24T02:47:27;21;21;
63305;PMS5003;50735;52.060;1.248;2023-04-24T02:49:59;30;23;
63305;PMS5003;50735;52.060;1.248;2023-04-24T02:52:31;24;20;
63305;PMS5003;50735;52.060;1.248;2023-04-24T02:55:03;21;19;
63305;PMS5003;50735;52.060;1.248;2023-04-24T02:57:36;19;19;
63305;PMS5003;50735;52.060;1.248;2023-04-24T03:00:08;20;19;
63305;PMS5003;50735;52.060;1.248;2023-04-24T03:02:40;18;18;
63305;PMS5003;50735;52.060;1.248;2023-04-24T03:05:12;25;23;
63305;PMS5003;50735;52.060;1.248;2023-04-24T03:07:45;33;25;
63305;PMS5003;50735;52.060;1.248;2023-04-24T03:10:17;28;27;
63305;PMS5003;50735;52.060;1.248;2023-04-24T03:12:49;24;20;
63305;PMS5003;50735;52.060;1.248;2023-04-24T03:15:21;24;22;
63305;PMS5003;50735;52.060;1.248;2023-04-24T03:17:53;26;16;
63305;PMS5003;50735;52.060;1.248;2023-04-24T03:20:24;16;16;
63305;PMS5003;50735;52.060;1.248;2023-04-24T03:22:56;23;21;
63305;PMS5003;50735;52.060;1.248;2023-04-24T03:25:28;21;16;
63305;PMS5003;50735;52.060;1.248;2023-04-24T03:28:00;21;18;
63305;PMS5003;50735;52.060;1.248;2023-04-24T03:30:32;22;18;
63305;PMS5003;50735;52.060;1.248;2023-04-24T03:33:04;16;16;
63305;PMS5003;50735;52.060;1.248;2023-04-24T03:35:36;14;14;
63305;PMS5003;50735;52.060;1.248;2023-04-24T03:38:07;18;18;
63305;PMS5003;50735;52.060;1.248;2023-04-24T03:40:40;18;14;
63305;PMS5003;50735;52.060;1.248;2023-04-24T03:43:11;16;14;
63305;PMS5003;50735;52.060;1.248;2023-04-24T03:45:43;22;18;
63305;PMS5003;50735;52.060;1.248;2023-04-24T03:48:15;11;11;
63305;PMS5003;50735;52.060;1.248;2023-04-24T03:50:48;14;12;
63305;PMS5003;50735;52.060;1.248;2023-04-24T03:53:19;10;10;
63305;PMS5003;50735;52.060;1.248;2023-04-24T03:55:52;18;13;
63305;PMS5003;50735;52.060;1.248;2023-04-24T03:58:23;21;17;
63305;PMS5003;50735;52.060;1.248;2023-04-24T04:00:55;22;15;
63305;PMS5003;50735;52.060;1.248;2023-04-24T04:03:27;23;21;
63305;PMS5003;50735;52.060;1.248;2023-04-24T04:05:59;19;15;
63305;PMS5003;50735;52.060;1.248;2023-04-24T04:08:31;21;15;
63305;PMS5003;50735;52.060;1.248;2023-04-24T04:11:02;15;15;
63305;PMS5003;50735;52.060;1.248;2023-04-24T04:13:34;22;17;
63305;PMS5003;50735;52.060;1.248;2023-04-24T04:16:06;18;16;
63305;PMS5003;50735;52.060;1.248;2023-04-24T04:18:37;17;16;
63305;PMS5003;50735;52.060;1.248;2023-04-24T04:21:09;19;14;
63305;PMS5003;50735;52.060;1.248;2023-04-24T04:23:41;19;19;
63305;PMS5003;50735;52.060;1.248;2023-04-24T04:26:14;18;14;
63305;PMS5003;50735;52.060;1.248;2023-04-24T04:28:46;20;15;
63305;PMS5003;50735;52.060;1.248;2023-04-24T04:31:18;18;18;
63305;PMS5003;50735;52.060;1.248;2023-04-24T04:33:50;21;18;
63305;PMS5003;50735;52.060;1.248;2023-04-24T04:36:21;14;12;
63305;PMS5003;50735;52.060;1.248;2023-04-24T04:38:53;17;14;
63305;PMS5003;50735;52.060;1.248;2023-04-24T04:41:25;19;18;
63305;PMS5003;50735;52.060;1.248;2023-04-24T04:43:57;15;14;
63305;PMS5003;50735;52.060;1.248;2023-04-24T04:46:29;17;14;
63305;PMS5003;50735;52.060;1.248;2023-04-24T04:49:02;19;15;
63305;PMS5003;50735;52.060;1.248;2023-04-24T04:51:33;22;18;
63305;PMS5003;50735;52.060;1.248;2023-04-24T04:54:05;19;18;
63305;PMS5003;50735;52.060;1.248;2023-04-24T04:56:37;15;14;
63305;PMS5003;50735;52.060;1.248;2023-04-24T04:59:09;17;12;
63305;PMS5003;50735;52.060;1.248;2023-04-24T05:01:41;14;14;
63305;PMS5003;50735;52.060;1.248;2023-04-24T05:04:12;18;14;
63305;PMS5003;50735;52.060;1.248;2023-04-24T05:06:44;13;11;
63305;PMS5003;50735;52.060;1.248;2023-04-24T05:09:16;17;11;
63305;PMS5003;50735;52.060;1.248;2023-04-24T05:11:48;10;7;
63305;PMS5003;50735;52.060;1.248;2023-04-24T05:14:20;11;9;
63305;PMS5003;50735;52.060;1.248;2023-04-24T05:16:52;9;9;
63305;PMS5003;50735;52.060;1.248;2023-04-24T05:19:24;12;10;
63305;PMS5003;50735;52.060;1.248;2023-04-24T05:21:55;18;8;
63305;PMS5003;50735;52.060;1.248;2023-04-24T05:24:27;8;8;
63305;PMS5003;50735;52.060;1.248;2023-04-24T05:26:59;9;6;
63305;PMS5003;50735;52.060;1.248;2023-04-24T05:29:31;9;9;
63305;PMS5003;50735;52.060;1.248;2023-04-24T05:32:03;9;8;
63305;PMS5003;50735;52.060;1.248;2023-04-24T05:34:35;9;7;
63305;PMS5003;50735;52.060;1.248;2023-04-24T05:37:06;22;14;
63305;PMS5003;50735;52.060;1.248;2023-04-24T05:39:38;9;6;
63305;PMS5003;50735;52.060;1.248;2023-04-24T05:42:10;9;7;
63305;PMS5003;50735;52.060;1.248;2023-04-24T05:44:42;9;7;
63305;PMS5003;50735;52.060;1.248;2023-04-24T05:47:14;8;8;
63305;PMS5003;50735;52.060;1.248;2023-04-24T05:49:46;8;5;
63305;PMS5003;50735;52.060;1.248;2023-04-24T05:52:18;8;6;
63305;PMS5003;50735;52.060;1.248;2023-04-24T05:54:50;5;5;
63305;PMS5003;50735;52.060;1.248;2023-04-24T05:57:22;6;6;
63305;PMS5003;50735;52.060;1.248;2023-04-24T05:59:53;6;4;
63305;PMS5003;50735;52.060;1.248;2023-04-24T06:02:25;9;5;
63305;PMS5003;50735;52.060;1.248;2023-04-24T06:04:57;6;6;
63305;PMS5003;50735;52.060;1.248;2023-04-24T06:07:29;6;5;
63305;PMS5003;50735;52.060;1.248;2023-04-24T06:10:01;10;5;
63305;PMS5003;50735;52.060;1.248;2023-04-24T06:12:32;5;5;
63305;PMS5003;50735;52.060;1.248;2023-04-24T06:15:05;6;3;
63305;PMS5003;50735;52.060;1.248;2023-04-24T06:17:38;7;5;
63305;PMS5003;50735;52.060;1.248;2023-04-24T06:20:10;5;5;
63305;PMS5003;50735;52.060;1.248;2023-04-24T06:22:42;15;10;
63305;PMS5003;50735;52.060;1.248;2023-04-24T06:25:14;7;7;
63305;PMS5003;50735;52.060;1.248;2023-04-24T06:27:46;9;6;
63305;PMS5003;50735;52.060;1.248;2023-04-24T06:30:18;6;6;
63305;PMS5003;50735;52.060;1.248;2023-04-24T06:32:50;6;6;
63305;PMS5003;50735;52.060;1.248;2023-04-24T06:35:22;7;4;
63305;PMS5003;50735;52.060;1.248;2023-04-24T06:37:54;9;6;
63305;PMS5003;50735;52.060;1.248;2023-04-24T06:40:25;5;5;
63305;PMS5003;50735;52.060;1.248;2023-04-24T06:42:57;6;4;
63305;PMS5003;50735;52.060;1.248;2023-04-24T06:45:29;7;7;
63305;PMS5003;50735;52.060;1.248;2023-04-24T06:48:01;8;5;
63305;PMS5003;50735;52.060;1.248;2023-04-24T06:50:33;7;7;
63305;PMS5003;50735;52.060;1.248;2023-04-24T06:53:04;6;6;
63305;PMS5003;50735;52.060;1.248;2023-04-24T06:55:36;4;4;
63305;PMS5003;50735;52.060;1.248;2023-04-24T06:58:08;5;5;
63305;PMS5003;50735;52.060;1.248;2023-04-24T07:00:40;9;7;
63305;PMS5003;50735;52.060;1.248;2023-04-24T07:03:12;4;4;
63305;PMS5003;50735;52.060;1.248;2023-04-24T07:05:44;7;4;
63305;PMS5003;50735;52.060;1.248;2023-04-24T07:08:15;5;5;
63305;PMS5003;50735;52.060;1.248;2023-04-24T07:10:48;5;5;
63305;PMS5003;50735;52.060;1.248;2023-04-24T07:13:21;8;6;
63305;PMS5003;50735;52.060;1.248;2023-04-24T07:15:53;6;6;
63305;PMS5003;50735;52.060;1.248;2023-04-24T07:18:26;10;5;
63305;PMS5003;50735;52.060;1.248;2023-04-24T07:20:57;6;6;
63305;PMS5003;50735;52.060;1.248;2023-04-24T07:23:29;10;7;
63305;PMS5003;50735;52.060;1.248;2023-04-24T07:26:01;8;6;
63305;PMS5003;50735;52.060;1.248;2023-04-24T07:28:33;7;5;
63305;PMS5003;50735;52.060;1.248;2023-04-24T07:31:05;5;5;
63305;PMS5003;50735;52.060;1.248;2023-04-24T07:33:37;4;4;
63305;PMS5003;50735;52.060;1.248;2023-04-24T07:36:09;7;6;
63305;PMS5003;50735;52.060;1.248;2023-04-24T07:38:41;5;5;
63305;PMS5003;50735;52.060;1.248;2023-04-24T07:41:12;11;6;
63305;PMS5003;50735;52.060;1.248;2023-04-24T07:43:45;7;7;
63305;PMS5003;50735;52.060;1.248;2023-04-24T07:46:17;9;7;
63305;PMS5003;50735;52.060;1.248;2023-04-24T07:48:49;10;4;
63305;PMS5003;50735;52.060;1.248;2023-04-24T07:51:20;7;6;
63305;PMS5003;50735;52.060;1.248;2023-04-24T07:53:52;6;6;
63305;PMS5003;50735;52.060;1.248;2023-04-24T07:56:24;6;5;
63305;PMS5003;50735;52.060;1.248;2023-04-24T07:58:56;6;6;
63305;PMS5003;50735;52.060;1.248;2023-04-24T08:01:28;10;7;
63305;PMS5003;50735;52.060;1.248;2023-04-24T08:03:59;10;8;
63305;PMS5003;50735;52.060;1.248;2023-04-24T08:06:31;8;6;
63305;PMS5003;50735;52.060;1.248;2023-04-24T08:09:03;9;7;
63305;PMS5003;50735;52.060;1.248;2023-04-24T08:11:35;12;8;
63305;PMS5003;50735;52.060;1.248;2023-04-24T08:14:07;9;7;
63305;PMS5003;50735;52.060;1.248;2023-04-24T08:16:38;11;8;
63305;PMS5003;50735;52.060;1.248;2023-04-24T08:19:10;4;4;
63305;PMS5003;50735;52.060;1.248;2023-04-24T08:21:42;5;5;
63305;PMS5003;50735;52.060;1.248;2023-04-24T08:24:14;11;7;
63305;PMS5003;50735;52.060;1.248;2023-04-24T08:26:46;7;6;
63305;PMS5003;50735;52.060;1.248;2023-04-24T08:29:18;8;5;
63305;PMS5003;50735;52.060;1.248;2023-04-24T08:31:49;6;5;
63305;PMS5003;50735;52.060;1.248;2023-04-24T08:34:21;8;8;
63305;PMS5003;50735;52.060;1.248;2023-04-24T08:36:53;5;5;
63305;PMS5003;50735;52.060;1.248;2023-04-24T08:39:25;10;7;
63305;PMS5003;50735;52.060;1.248;2023-04-24T08:41:56;6;6;
63305;PMS5003;50735;52.060;1.248;2023-04-24T08:44:31;7;5;
63305;PMS5003;50735;52.060;1.248;2023-04-24T08:47:04;8;7;
63305;PMS5003;50735;52.060;1.248;2023-04-24T08:49:38;8;6;
63305;PMS5003;50735;52.060;1.248;2023-04-24T08:52:10;6;6;
63305;PMS5003;50735;52.060;1.248;2023-04-24T08:54:43;9;8;
63305;PMS5003;50735;52.060;1.248;2023-04-24T08:57:17;7;7;
63305;PMS5003;50735;52.060;1.248;2023-04-24T08:59:50;11;8;
63305;PMS5003;50735;52.060;1.248;2023-04-24T09:02:22;11;8;
63305;PMS5003;50735;52.060;1.248;2023-04-24T09:04:54;6;6;
63305;PMS5003;50735;52.060;1.248;2023-04-24T09:07:27;7;7;
63305;PMS5003;50735;52.060;1.248;2023-04-24T09:10:01;7;7;
63305;PMS5003;50735;52.060;1.248;2023-04-24T09:12:34;7;6;
63305;PMS5003;50735;52.060;1.248;2023-04-24T09:15:06;9;6;
63305;PMS5003;50735;52.060;1.248;2023-04-24T09:17:39;4;4;
63305;PMS5003;50735;52.060;1.248;2023-04-24T09:20:11;6;5;
63305;PMS5003;50735;52.060;1.248;2023-04-24T09:22:43;3;3;
63305;PMS5003;50735;52.060;1.248;2023-04-24T09:25:16;4;4;
63305;PMS5003;50735;52.060;1.248;2023-04-24T09:27:49;4;3;
63305;PMS5003;50735;52.060;1.248;2023-04-24T09:30:25;3;3;
63305;PMS5003;50735;52.060;1.248;2023-04-24T09:33:12;4;4;
63305;PMS5003;50735;52.060;1.248;2023-04-24T09:35:48;3;3;
63305;PMS5003;50735;52.060;1.248;2023-04-24T09:38:29;6;4;
63305;PMS5003;50735;52.060;1.248;2023-04-24T09:41:04;5;5;
63305;PMS5003;50735;52.060;1.248;2023-04-24T09:43:37;6;4;
63305;PMS5003;50735;52.060;1.248;2023-04-24T09:46:09;4;4;
63305;PMS5003;50735;52.060;1.248;2023-04-24T09:48:40;6;5;
63305;PMS5003;50735;52.060;1.248;2023-04-24T09:51:12;5;3;
63305;PMS5003;50735;52.060;1.248;2023-04-24T09:53:45;4;3;
63305;PMS5003;50735;52.060;1.248;2023-04-24T09:56:18;5;4;
63305;PMS5003;50735;52.060;1.248;2023-04-24T09:58:49;5;2;
63305;PMS5003;50735;52.060;1.248;2023-04-24T10:01:29;5;4;
63305;PMS5003;50735;52.060;1.248;2023-04-24T10:04:02;3;3;
63305;PMS5003;50735;52.060;1.248;2023-04-24T10:06:34;5;5;
63305;PMS5003;50735;52.060;1.248;2023-04-24T10:09:06;4;1;
63305;PMS5003;50735;52.060;1.248;2023-04-24T10:11:38;6;4;
63305;PMS5003;50735;52.060;1.248;2023-04-24T10:14:18;5;3;
63305;PMS5003;50735;52.060;1.248;2023-04-24T10:16:52;3;3;
63305;PMS5003;50735;52.060;1.248;2023-04-24T10:19:25;5;5;
63305;PMS5003;50735;52.060;1.248;2023-04-24T10:21:57;3;3;
63305;PMS5003;50735;52.060;1.248;2023-04-24T10:24:30;3;3;
63305;PMS5003;50735;52.060;1.248;2023-04-24T10:27:04;5;5;
63305;PMS5003;50735;52.060;1.248;2023-04-24T10:29:37;7;4;
63305;PMS5003;50735;52.060;1.248;2023-04-24T10:32:11;6;4;
63305;PMS5003;50735;52.060;1.248;2023-04-24T10:34:42;3;3;
63305;PMS5003;50735;52.060;1.248;2023-04-24T10:37:14;2;2;
63305;PMS5003;50735;52.060;1.248;2023-04-24T10:39:47;3;3;
63305;PMS5003;50735;52.060;1.248;2023-04-24T10:42:19;4;2;
63305;PMS5003;50735;52.060;1.248;2023-04-24T10:44:51;4;2;
63305;PMS5003;50735;52.060;1.248;2023-04-24T10:47:23;3;3;
63305;PMS5003;50735;52.060;1.248;2023-04-24T10:49:55;4;4;
63305;PMS5003;50735;52.060;1.248;2023-04-24T10:52:43;4;3;
63305;PMS5003;50735;52.060;1.248;2023-04-24T10:55:15;4;4;
63305;PMS5003;50735;52.060;1.248;2023-04-24T10:58:03;5;3;
63305;PMS5003;50735;52.060;1.248;2023-04-24T11:00:36;5;3;
63305;PMS5003;50735;52.060;1.248;2023-04-24T11:03:22;3;3;
63305;PMS5003;50735;52.060;1.248;2023-04-24T11:05:56;5;5;
63305;PMS5003;50735;52.060;1.248;2023-04-24T11:08:31;10;7;
63305;PMS5003;50735;52.060;1.248;2023-04-24T11:11:09;5;5;
63305;PMS5003;50735;52.060;1.248;2023-04-24T11:14:15;6;5;
63305;PMS5003;50735;52.060;1.248;2023-04-24T11:16:51;5;5;
63305;PMS5003;50735;52.060;1.248;2023-04-24T11:19:24;6;4;
63305;PMS5003;50735;52.060;1.248;2023-04-24T11:21:58;7;5;
63305;PMS5003;50735;52.060;1.248;2023-04-24T11:24:31;4;4;
63305;PMS5003;50735;52.060;1.248;2023-04-24T11:27:11;6;6;
63305;PMS5003;50735;52.060;1.248;2023-04-24T11:29:46;6;5;
63305;PMS5003;50735;52.060;1.248;2023-04-24T11:32:22;6;6;
63305;PMS5003;50735;52.060;1.248;2023-04-24T11:34:56;11;5;
63305;PMS5003;50735;52.060;1.248;2023-04-24T11:37:29;7;6;
63305;PMS5003;50735;52.060;1.248;2023-04-24T11:40:06;5;5;
63305;PMS5003;50735;52.060;1.248;2023-04-24T11:42:40;7;7;
63305;PMS5003;50735;52.060;1.248;2023-04-24T11:45:14;7;6;
63305;PMS5003;50735;52.060;1.248;2023-04-24T11:47:48;7;7;
63305;PMS5003;50735;52.060;1.248;2023-04-24T11:50:21;6;6;
63305;PMS5003;50735;52.060;1.248;2023-04-24T11:52:55;9;6;
63305;PMS5003;50735;52.060;1.248;2023-04-24T11:55:27;6;6;
63305;PMS5003;50735;52.060;1.248;2023-04-24T11:58:00;7;7;
63305;PMS5003;50735;52.060;1.248;2023-04-24T12:00:32;9;6;
63305;PMS5003;50735;52.060;1.248;2023-04-24T12:03:05;7;6;
63305;PMS5003;50735;52.060;1.248;2023-04-24T12:05:38;6;6;
63305;PMS5003;50735;52.060;1.248;2023-04-24T12:08:10;6;6;
63305;PMS5003;50735;52.060;1.248;2023-04-24T12:10:42;5;5;
63305;PMS5003;50735;52.060;1.248;2023-04-24T12:13:14;7;7;
63305;PMS5003;50735;52.060;1.248;2023-04-24T12:15:46;5;5;
63305;PMS5003;50735;52.060;1.248;2023-04-24T12:18:18;6;4;
63305;PMS5003;50735;52.060;1.248;2023-04-24T12:20:49;6;6;
63305;PMS5003;50735;52.060;1.248;2023-04-24T12:23:37;4;3;
63305;PMS5003;50735;52.060;1.248;2023-04-24T12:26:09;6;6;
63305;PMS5003;50735;52.060;1.248;2023-04-24T12:28:40;10;10;
63305;PMS5003;50735;52.060;1.248;2023-04-24T12:31:12;8;4;
63305;PMS5003;50735;52.060;1.248;2023-04-24T12:33:44;6;6;
63305;PMS5003;50735;52.060;1.248;2023-04-24T12:36:16;8;6;
63305;PMS5003;50735;52.060;1.248;2023-04-24T12:38:47;10;10;
63305;PMS5003;50735;52.060;1.248;2023-04-24T12:41:24;6;6;
63305;PMS5003;50735;52.060;1.248;2023-04-24T12:43:55;6;6;
63305;PMS5003;50735;52.060;1.248;2023-04-24T12:46:27;11;7;
63305;PMS5003;50735;52.060;1.248;2023-04-24T12:48:59;6;5;
63305;PMS5003;50735;52.060;1.248;2023-04-24T12:51:31;6;6;
63305;PMS5003;50735;52.060;1.248;2023-04-24T12:54:03;4;4;
63305;PMS5003;50735;52.060;1.248;2023-04-24T12:56:34;9;6;
63305;PMS5003;50735;52.060;1.248;2023-04-24T12:59:06;7;6;
63305;PMS5003;50735;52.060;1.248;2023-04-24T13:01:38;5;5;
63305;PMS5003;50735;52.060;1.248;2023-04-24T13:04:10;7;7;
63305;PMS5003;50735;52.060;1.248;2023-04-24T13:06:42;6;6;
63305;PMS5003;50735;52.060;1.248;2023-04-24T13:09:13;7;6;
63305;PMS5003;50735;52.060;1.248;2023-04-24T13:11:45;10;6;
63305;PMS5003;50735;52.060;1.248;2023-04-24T13:14:17;5;5;
63305;PMS5003;50735;52.060;1.248;2023-04-24T13:16:49;5;5;
63305;PMS5003;50735;52.060;1.248;2023-04-24T13:19:21;5;5;
63305;PMS5003;50735;52.060;1.248;2023-04-24T13:21:56;6;5;
63305;PMS5003;50735;52.060;1.248;2023-04-24T13:24:28;8;6;
63305;PMS5003;50735;52.060;1.248;2023-04-24T13:27:00;7;6;
63305;PMS5003;50735;52.060;1.248;2023-04-24T13:29:31;9;6;
63305;PMS5003;50735;52.060;1.248;2023-04-24T13:32:03;5;5;
63305;PMS5003;50735;52.060;1.248;2023-04-24T13:34:35;5;3;
63305;PMS5003;50735;52.060;1.248;2023-04-24T13:37:07;6;6;
63305;PMS5003;50735;52.060;1.248;2023-04-24T13:39:40;12;11;
63305;PMS5003;50735;52.060;1.248;2023-04-24T13:42:12;11;8;
63305;PMS5003;50735;52.060;1.248;2023-04-24T13:44:43;6;6;
63305;PMS5003;50735;52.060;1.248;2023-04-24T13:47:15;7;6;
63305;PMS5003;50735;52.060;1.248;2023-04-24T13:49:47;8;7;
63305;PMS5003;50735;52.060;1.248;2023-04-24T13:52:19;8;6;
63305;PMS5003;50735;52.060;1.248;2023-04-24T13:54:51;6;6;
63305;PMS5003;50735;52.060;1.248;2023-04-24T13:57:22;12;8;
63305;PMS5003;50735;52.060;1.248;2023-04-24T13:59:54;7;7;
63305;PMS5003;50735;52.060;1.248;2023-04-24T14:02:26;9;6;
63305;PMS5003;50735;52.060;1.248;2023-04-24T14:04:59;10;9;
63305;PMS5003;50735;52.060;1.248;2023-04-24T14:07:30;13;9;
63305;PMS5003;50735;52.060;1.248;2023-04-24T14:10:02;11;9;
63305;PMS5003;50735;52.060;1.248;2023-04-24T14:12:35;7;7;
63305;PMS5003;50735;52.060;1.248;2023-04-24T14:15:07;7;7;
63305;PMS5003;50735;52.060;1.248;2023-04-24T14:17:40;10;7;
63305;PMS5003;50735;52.060;1.248;2023-04-24T14:20:12;16;12;
63305;PMS5003;50735;52.060;1.248;2023-04-24T14:22:44;8;6;
63305;PMS5003;50735;52.060;1.248;2023-04-24T14:25:16;6;6;
63305;PMS5003;50735;52.060;1.248;2023-04-24T14:27:47;7;7;
63305;PMS5003;50735;52.060;1.248;2023-04-24T14:30:19;11;10;
63305;PMS5003;50735;52.060;1.248;2023-04-24T14:32:51;8;8;
63305;PMS5003;50735;52.060;1.248;2023-04-24T14:35:23;10;8;
63305;PMS5003;50735;52.060;1.248;2023-04-24T14:37:55;11;9;
63305;PMS5003;50735;52.060;1.248;2023-04-24T14:40:27;9;7;
63305;PMS5003;50735;52.060;1.248;2023-04-24T14:42:59;12;9;
63305;PMS5003;50735;52.060;1.248;2023-04-24T14:45:30;10;7;
63305;PMS5003;50735;52.060;1.248;2023-04-24T14:48:02;10;9;
63305;PMS5003;50735;52.060;1.248;2023-04-24T14:50:34;8;7;
63305;PMS5003;50735;52.060;1.248;2023-04-24T14:53:07;9;8;
63305;PMS5003;50735;52.060;1.248;2023-04-24T14:55:39;11;8;
63305;PMS5003;50735;52.060;1.248;2023-04-24T14:58:10;10;8;
63305;PMS5003;50735;52.060;1.248;2023-04-24T15:00:42;10;7;
63305;PMS5003;50735;52.060;1.248;2023-04-24T15:03:14;10;9;
63305;PMS5003;50735;52.060;1.248;2023-04-24T15:05:46;9;7;
63305;PMS5003;50735;52.060;1.248;2023-04-24T15:08:17;9;9;
63305;PMS5003;50735;52.060;1.248;2023-04-24T15:10:49;8;8;
63305;PMS5003;50735;52.060;1.248;2023-04-24T15:13:21;6;6;
63305;PMS5003;50735;52.060;1.248;2023-04-24T15:15:53;9;5;
63305;PMS5003;50735;52.060;1.248;2023-04-24T15:18:24;9;8;
63305;PMS5003;50735;52.060;1.248;2023-04-24T15:20:56;7;7;
63305;PMS5003;50735;52.060;1.248;2023-04-24T15:23:29;14;11;
63305;PMS5003;50735;52.060;1.248;2023-04-24T15:26:00;7;6;
63305;PMS5003;50735;52.060;1.248;2023-04-24T15:28:32;8;7;
63305;PMS5003;50735;52.060;1.248;2023-04-24T15:31:04;7;7;
63305;PMS5003;50735;52.060;1.248;2023-04-24T15:33:36;15;10;
63305;PMS5003;50735;52.060;1.248;2023-04-24T15:36:07;13;9;
63305;PMS5003;50735;52.060;1.248;2023-04-24T15:38:39;7;6;
63305;PMS5003;50735;52.060;1.248;2023-04-24T15:41:11;11;8;
63305;PMS5003;50735;52.060;1.248;2023-04-24T15:43:43;12;9;
63305;PMS5003;50735;52.060;1.248;2023-04-24T15:46:15;9;7;
63305;PMS5003;50735;52.060;1.248;2023-04-24T15:48:47;9;8;
63305;PMS5003;50735;52.060;1.248;2023-04-24T15:51:18;11;8;
63305;PMS5003;50735;52.060;1.248;2023-04-24T15:53:50;10;7;
63305;PMS5003;50735;52.060;1.248;2023-04-24T15:56:22;11;10;
63305;PMS5003;50735;52.060;1.248;2023-04-24T15:58:54;9;7;
63305;PMS5003;50735;52.060;1.248;2023-04-24T16:01:26;8;8;
63305;PMS5003;50735;52.060;1.248;2023-04-24T16:03:58;10;10;
63305;PMS5003;50735;52.060;1.248;2023-04-24T16:06:29;9;8;
63305;PMS5003;50735;52.060;1.248;2023-04-24T16:09:01;8;7;
63305;PMS5003;50735;52.060;1.248;2023-04-24T16:11:33;5;5;
63305;PMS5003;50735;52.060;1.248;2023-04-24T16:14:05;9;7;
63305;PMS5003;50735;52.060;1.248;2023-04-24T16:16:37;10;7;
63305;PMS5003;50735;52.060;1.248;2023-04-24T16:19:08;13;6;
63305;PMS5003;50735;52.060;1.248;2023-04-24T16:21:40;5;5;
63305;PMS5003;50735;52.060;1.248;2023-04-24T16:24:12;7;6;
63305;PMS5003;50735;52.060;1.248;2023-04-24T16:26:44;7;7;
63305;PMS5003;50735;52.060;1.248;2023-04-24T16:29:16;9;6;
63305;PMS5003;50735;52.060;1.248;2023-04-24T16:31:47;8;7;
63305;PMS5003;50735;52.060;1.248;2023-04-24T16:34:19;6;6;
63305;PMS5003;50735;52.060;1.248;2023-04-24T16:36:51;7;7;
63305;PMS5003;50735;52.060;1.248;2023-04-24T16:39:23;12;8;
63305;PMS5003;50735;52.060;1.248;2023-04-24T16:41:54;8;6;
63305;PMS5003;50735;52.060;1.248;2023-04-24T16:44:26;8;5;
63305;PMS5003;50735;52.060;1.248;2023-04-24T16:46:58;7;7;
63305;PMS5003;50735;52.060;1.248;2023-04-24T16:49:30;7;7;
63305;PMS5003;50735;52.060;1.248;2023-04-24T16:52:02;7;6;
63305;PMS5003;50735;52.060;1.248;2023-04-24T16:54:33;12;6;
63305;PMS5003;50735;52.060;1.248;2023-04-24T16:57:06;8;8;
63305;PMS5003;50735;52.060;1.248;2023-04-24T16:59:38;9;7;
63305;PMS5003;50735;52.060;1.248;2023-04-24T17:02:10;15;8;
63305;PMS5003;50735;52.060;1.248;2023-04-24T17:04:42;11;6;
63305;PMS5003;50735;52.060;1.248;2023-04-24T17:07:14;15;12;
63305;PMS5003;50735;52.060;1.248;2023-04-24T17:09:46;11;7;
63305;PMS5003;50735;52.060;1.248;2023-04-24T17:12:17;8;7;